createdAt,value
2022-08-26T00:02:06.706Z,4.00
2022-08-26T00:07:00.499Z,3.95
2022-08-26T00:11:54.900Z,4.18
2022-08-26T00:16:49.136Z,4.30
2022-08-26T00:21:44.017Z,4.63
2022-08-26T00:26:38.607Z,4.20
2022-08-26T00:31:39.887Z,4.53
2022-08-26T00:36:34.263Z,4.20
2022-08-26T00:41:28.373Z,4.97
2022-08-26T00:46:29.484Z,4.10
2022-08-26T00:51:29.875Z,4.38
2022-08-26T00:56:36.869Z,4.10
2022-08-26T01:01:30.701Z,4.00
2022-08-26T01:06:24.656Z,3.85
2022-08-26T01:11:20.054Z,3.70
2022-08-26T01:16:16.555Z,4.18
2022-08-26T01:21:22.783Z,4.65
2022-08-26T01:26:22.771Z,4.00
2022-08-26T01:31:18.725Z,4.53
2022-08-26T01:36:12.946Z,4.00
2022-08-26T01:41:27.238Z,5.68
2022-08-26T01:46:41.683Z,4.32
2022-08-26T01:51:37.340Z,4.50
2022-08-26T01:56:33.099Z,5.07
2022-08-26T02:01:30.511Z,4.63
2022-08-26T02:06:24.076Z,5.13
2022-08-26T02:11:19.186Z,4.35
2022-08-26T02:16:12.337Z,4.03
2022-08-26T02:21:06.624Z,4.40
2022-08-26T02:26:17.905Z,4.47
2022-08-26T02:31:16.791Z,4.45
2022-08-26T02:36:10.355Z,4.68
2022-08-26T02:41:06.303Z,4.45
2022-08-26T02:46:02.653Z,4.35
2022-08-26T02:50:56.363Z,4.88
2022-08-26T02:55:50.042Z,4.45
2022-08-26T03:00:53.182Z,4.28
2022-08-26T03:05:48.502Z,7.15
2022-08-26T03:10:43.122Z,7.70
2022-08-26T03:15:37.426Z,9.55
2022-08-26T03:20:32.339Z,10.65
2022-08-26T03:25:26.366Z,10.35
2022-08-26T03:30:44.677Z,9.85
2022-08-26T03:35:40.216Z,9.02
2022-08-26T03:40:36.722Z,9.60
2022-08-26T03:45:29.656Z,8.30
2022-08-26T03:50:24.506Z,9.15
2022-08-26T03:55:19.316Z,9.52
2022-08-26T04:00:19.092Z,9.82
2022-08-26T04:05:18.479Z,9.38
2022-08-26T04:10:15.155Z,10.25
2022-08-26T04:15:14.486Z,9.45
2022-08-26T04:20:09.623Z,9.38
2022-08-26T04:25:04.404Z,10.40
2022-08-26T04:30:00.501Z,9.85
2022-08-26T04:34:56.015Z,9.30
2022-08-26T04:39:54.941Z,10.20
2022-08-26T04:44:50.133Z,11.43
2022-08-26T04:49:44.826Z,9.77
2022-08-26T04:54:38.694Z,13.93
2022-08-26T04:59:39.348Z,11.77
2022-08-26T05:04:33.965Z,12.53
2022-08-26T05:09:29.368Z,10.32
2022-08-26T05:14:23.494Z,9.70
2022-08-26T05:19:19.222Z,8.80
2022-08-26T05:24:14.453Z,9.05
2022-08-26T05:29:09.299Z,8.75
2022-08-26T05:34:05.530Z,7.93
2022-08-26T05:38:59.893Z,6.97
2022-08-26T05:43:53.788Z,5.65
2022-08-26T05:48:48.412Z,5.55
2022-08-26T05:53:43.953Z,5.75
2022-08-26T05:58:49.012Z,5.88
2022-08-26T06:03:49.612Z,4.88
2022-08-26T06:08:45.729Z,4.82
2022-08-26T06:13:41.733Z,4.82
2022-08-26T06:18:37.975Z,5.13
2022-08-26T06:23:49.754Z,4.57
2022-08-26T06:28:45.752Z,4.53
2022-08-26T06:33:40.536Z,5.65
2022-08-26T06:38:34.192Z,5.80
2022-08-26T06:43:30.259Z,6.07
2022-08-26T06:48:25.636Z,6.05
2022-08-26T06:53:19.804Z,5.65
2022-08-26T06:58:14.776Z,5.70
2022-08-26T07:03:09.241Z,5.72
2022-08-26T07:08:02.808Z,5.97
2022-08-26T07:12:57.752Z,6.75
2022-08-26T07:17:51.958Z,6.20
2022-08-26T07:22:46.361Z,5.70
2022-08-26T07:27:40.691Z,4.78
2022-08-26T07:32:34.355Z,5.20
2022-08-26T07:37:28.310Z,5.03
2022-08-26T07:42:24.388Z,5.40
2022-08-26T07:47:24.889Z,4.65
2022-08-26T07:52:25.308Z,4.45
2022-08-26T07:57:21.588Z,4.30
2022-08-26T08:02:17.877Z,3.80
2022-08-26T08:07:12.440Z,3.97
2022-08-26T08:12:07.316Z,3.65
2022-08-26T08:17:01.438Z,3.40
2022-08-26T08:21:56.664Z,3.72
2022-08-26T08:26:51.350Z,3.22
2022-08-26T08:31:56.573Z,3.92
2022-08-26T08:42:14.390Z,3.20
2022-08-26T08:47:26.717Z,2.83
2022-08-26T08:52:33.631Z,3.50
2022-08-26T08:57:45.876Z,2.38
2022-08-26T09:02:53.731Z,3.08
2022-08-26T09:07:59.278Z,3.53
2022-08-26T09:12:52.791Z,4.43
2022-08-26T09:17:56.695Z,3.38
2022-08-26T09:22:51.394Z,3.67
2022-08-26T09:27:50.774Z,4.28
2022-08-26T09:32:44.499Z,3.92
2022-08-26T09:42:44.378Z,4.95
2022-08-26T09:47:46.107Z,4.00
2022-08-26T09:52:42.742Z,2.88
2022-08-26T09:57:49.943Z,3.00
2022-08-26T10:02:47.737Z,2.95
2022-08-26T10:07:49.624Z,2.53
2022-08-26T10:13:16.836Z,3.78
2022-08-26T10:18:20.030Z,3.20
2022-08-26T10:23:20.308Z,2.72
2022-08-26T10:28:47.707Z,2.22
2022-08-26T10:33:41.941Z,2.90
2022-08-26T10:38:40.019Z,3.40
2022-08-26T10:43:44.500Z,2.80
2022-08-26T10:48:59.900Z,2.80
2022-08-26T10:54:26.724Z,3.03
2022-08-26T10:59:22.624Z,2.65
2022-08-26T11:04:44.396Z,2.70
2022-08-26T11:09:46.206Z,2.55
2022-08-26T11:14:53.199Z,2.60
2022-08-26T11:20:02.223Z,2.53
2022-08-26T11:24:56.400Z,2.20
2022-08-26T11:30:05.781Z,2.30
2022-08-26T11:35:05.719Z,2.25
2022-08-26T11:39:58.730Z,2.20
2022-08-26T11:44:52.503Z,2.22
2022-08-26T11:49:50.099Z,2.42
2022-08-26T11:55:30.918Z,2.28
2022-08-26T12:00:26.103Z,2.53
2022-08-26T12:05:25.142Z,2.47
2022-08-26T12:10:33.590Z,2.53
2022-08-26T12:15:29.654Z,1.95
2022-08-26T12:20:49.554Z,2.25
2022-08-26T12:25:44.183Z,2.17
2022-08-26T12:30:40.405Z,2.33
2022-08-26T12:35:35.536Z,2.47
2022-08-26T12:40:31.944Z,2.42
2022-08-26T12:45:29.234Z,2.20
2022-08-26T12:50:30.779Z,2.22
2022-08-26T12:55:33.091Z,2.10
2022-08-26T13:00:36.218Z,2.22
2022-08-26T13:05:36.306Z,2.78
2022-08-26T13:10:42.142Z,2.30
2022-08-26T13:15:35.123Z,2.60
2022-08-26T13:20:29.115Z,3.07
2022-08-26T13:25:23.035Z,2.13
2022-08-26T13:30:17.941Z,2.63
2022-08-26T13:40:06.914Z,2.60
2022-08-26T13:45:02.005Z,2.47
2022-08-26T13:49:57.139Z,2.50
2022-08-26T13:54:51.828Z,2.67
2022-08-26T13:59:48.520Z,4.28
2022-08-26T14:04:42.581Z,3.50
2022-08-26T14:09:38.472Z,3.00
2022-08-26T14:14:32.831Z,3.05
2022-08-26T14:19:26.770Z,3.10
2022-08-26T14:24:20.408Z,4.25
2022-08-26T14:29:16.206Z,2.80
2022-08-26T14:34:11.444Z,2.85
2022-08-26T14:39:12.544Z,3.10
2022-08-26T14:44:09.174Z,3.50
2022-08-26T14:49:06.232Z,2.83
2022-08-26T14:54:14.856Z,3.15
2022-08-26T14:59:08.405Z,2.75
2022-08-26T15:04:02.804Z,3.13
2022-08-26T15:08:57.373Z,3.30
2022-08-26T15:13:51.317Z,3.50
2022-08-26T15:18:43.635Z,3.50
2022-08-26T15:23:38.827Z,3.47
2022-08-26T15:28:34.259Z,3.83
2022-08-26T15:33:28.024Z,3.33
2022-08-26T15:38:22.166Z,3.55
2022-08-26T15:43:28.711Z,3.63
2022-08-26T15:48:22.583Z,3.45
2022-08-26T15:53:16.887Z,3.85
2022-08-26T15:58:11.250Z,3.40
2022-08-26T16:03:04.732Z,3.90
2022-08-26T16:07:59.062Z,3.20
2022-08-26T16:12:52.601Z,3.70
2022-08-26T16:17:46.840Z,3.88
2022-08-26T16:22:41.018Z,2.88
2022-08-26T16:27:35.284Z,3.28
2022-08-26T16:32:31.245Z,4.47
2022-08-26T16:37:25.972Z,3.20
2022-08-26T16:42:19.001Z,3.10
2022-08-26T16:47:13.789Z,3.08
2022-08-26T16:52:09.256Z,3.72
2022-08-26T16:57:02.180Z,3.13
2022-08-26T17:01:55.960Z,3.38
2022-08-26T17:06:50.355Z,4.43
2022-08-26T17:11:45.178Z,5.10
2022-08-26T17:16:39.676Z,5.18
2022-08-26T17:21:34.259Z,4.18
2022-08-26T17:26:29.226Z,3.70
2022-08-26T17:31:23.420Z,3.70
2022-08-26T17:36:17.886Z,4.68
2022-08-26T17:41:13.022Z,3.30
2022-08-26T17:46:09.346Z,3.75
2022-08-26T17:51:14.246Z,4.87
2022-08-26T17:56:12.021Z,3.92
2022-08-26T18:01:07.471Z,4.90
2022-08-26T18:06:01.202Z,5.03
2022-08-26T18:10:54.872Z,4.45
2022-08-26T18:15:49.458Z,4.55
2022-08-26T18:20:45.237Z,5.18
2022-08-26T18:25:51.829Z,4.03
2022-08-26T18:30:45.781Z,4.63
2022-08-26T18:35:44.517Z,4.32
2022-08-26T18:40:42.837Z,3.85
2022-08-26T18:45:36.662Z,4.40
2022-08-26T18:50:30.007Z,4.40
2022-08-26T18:55:24.925Z,4.32
2022-08-26T19:00:19.186Z,5.15
2022-08-26T19:05:13.616Z,4.30
2022-08-26T19:10:07.448Z,4.57
2022-08-26T19:15:03.476Z,4.00
2022-08-26T19:19:58.360Z,4.35
2022-08-26T19:24:53.206Z,4.55
2022-08-26T19:29:47.614Z,4.15
2022-08-26T19:34:41.720Z,5.15
2022-08-26T19:39:36.887Z,7.22
2022-08-26T19:44:48.407Z,5.80
2022-08-26T19:49:42.263Z,5.68
2022-08-26T19:54:36.598Z,5.80
2022-08-26T19:59:33.811Z,4.28
2022-08-26T20:04:28.349Z,5.07
2022-08-26T20:09:22.493Z,4.97
2022-08-26T20:14:19.124Z,4.78
2022-08-26T20:19:37.338Z,5.80
2022-08-26T20:24:32.786Z,4.72
2022-08-26T20:29:26.932Z,5.25
2022-08-26T20:34:22.100Z,4.35
2022-08-26T20:39:16.404Z,4.57
2022-08-26T20:44:09.988Z,4.82
2022-08-26T20:49:04.403Z,4.50
2022-08-26T20:53:58.900Z,4.32
2022-08-26T20:58:53.683Z,4.57
2022-08-26T21:03:46.969Z,4.10
2022-08-26T21:08:43.212Z,4.32
2022-08-26T21:13:54.409Z,5.00
2022-08-26T21:18:50.999Z,4.32
2022-08-26T21:23:45.170Z,5.00
2022-08-26T21:28:40.117Z,4.75
2022-08-26T21:33:33.113Z,4.18
2022-08-26T21:38:28.372Z,4.40
2022-08-26T21:43:34.789Z,5.07
2022-08-26T21:48:32.222Z,4.93
2022-08-26T21:53:28.609Z,4.25
2022-08-26T21:58:23.929Z,4.30
2022-08-26T22:03:17.156Z,5.25
2022-08-26T22:08:11.909Z,4.45
2022-08-26T22:13:07.157Z,4.80
2022-08-26T22:18:00.727Z,4.47
2022-08-26T22:22:54.328Z,4.43
2022-08-26T22:27:48.282Z,4.80
2022-08-26T22:32:43.227Z,4.70
2022-08-26T22:37:39.058Z,5.55
2022-08-26T22:42:32.692Z,5.38
2022-08-26T22:47:27.611Z,5.43
2022-08-26T22:52:21.303Z,7.00
2022-08-26T22:57:16.332Z,5.63
2022-08-26T23:02:11.128Z,5.53
2022-08-26T23:07:11.538Z,6.55
2022-08-26T23:12:05.311Z,5.35
2022-08-26T23:16:59.081Z,4.80
2022-08-26T23:21:52.755Z,5.63
2022-08-26T23:26:51.535Z,5.07
2022-08-26T23:31:45.985Z,4.75
2022-08-26T23:36:39.545Z,5.35
2022-08-26T23:41:33.522Z,5.00
2022-08-26T23:46:27.447Z,6.03
2022-08-26T23:51:39.925Z,4.30
2022-08-26T23:56:34.645Z,4.82
